Broken Arrow, Oklahoma
Current Conditions -  °F | °C
As of 4:53 AM on Friday 28 Nov 2014 (Local Time) from KRVS Reporting Station
Clear Clear  
Wind Chill: 34°   Ceiling: Unl
Heat Index: 41°   Visibility: 10mi
Dew Point: 27°   Wind: 12mph
Humidity: 57%   Direction: 190°S
Pressure: 30.19"   Gusts: NA
Location:  36.05°N, 95.79°W
Report Text: KRVS 281053Z 19010KT 10SM CLR 05/M03 A3019 RMK AO2 SLP230 T00501028
Loading
Personal Weather Stations






























Interactive Weather Map New forecast layout! Learn more

10-Day Weather Forecast

Advertisements
Track Severe Weather on mobile